createdAt,value
2019-03-12T00:00:35.890Z,45
2019-03-12T00:01:25.672Z,45
2019-03-12T00:02:15.983Z,44.9
2019-03-12T00:03:05.545Z,45
2019-03-12T00:03:55.337Z,45
2019-03-12T00:04:45.929Z,44.9
2019-03-12T00:05:35.190Z,45
2019-03-12T00:06:26.119Z,44.9
2019-03-12T00:07:16.417Z,44.9
2019-03-12T00:08:05.903Z,44.9
2019-03-12T00:08:56.049Z,44.9
2019-03-12T00:09:45.784Z,44.9
2019-03-12T00:10:36.349Z,44.9
2019-03-12T00:11:26.382Z,44.9
2019-03-12T00:12:16.532Z,44.9
2019-03-12T00:13:06.242Z,44.9
2019-03-12T00:13:56.596Z,44.9
2019-03-12T00:14:46.904Z,44.9
2019-03-12T00:15:36.980Z,44.9
2019-03-12T00:16:26.522Z,44.9
2019-03-12T00:17:15.982Z,44.9
2019-03-12T00:18:06.706Z,44.9
2019-03-12T00:18:56.405Z,44.9
2019-03-12T00:19:46.451Z,44.9
2019-03-12T00:20:36.493Z,44.9
2019-03-12T00:21:27.416Z,44.9
2019-03-12T00:22:16.631Z,44.9
2019-03-12T00:23:07.038Z,44.9
2019-03-12T00:23:57.053Z,44.9
2019-03-12T00:24:47.076Z,44.9
2019-03-12T00:25:37.476Z,44.9
2019-03-12T00:26:27.242Z,44.8
2019-03-12T00:27:17.022Z,44.8
2019-03-12T00:28:07.330Z,44.9
2019-03-12T00:28:57.103Z,44.8
2019-03-12T00:29:48.089Z,44.8
2019-03-12T00:30:37.338Z,44.8
2019-03-12T00:31:27.398Z,44.8
2019-03-12T00:32:17.916Z,44.8
2019-03-12T00:33:08.339Z,44.8
2019-03-12T00:33:57.769Z,44.8
2019-03-12T00:34:48.088Z,44.8
2019-03-12T00:35:37.953Z,44.8
2019-03-12T00:36:27.938Z,44.8
2019-03-12T00:37:18.016Z,44.8
2019-03-12T00:38:08.048Z,44.8
2019-03-12T00:38:58.395Z,44.8
2019-03-12T00:39:48.731Z,44.8
2019-03-12T00:40:38.627Z,44.8
2019-03-12T00:41:28.861Z,44.8
2019-03-12T00:42:18.088Z,44.8
2019-03-12T00:43:08.690Z,44.8
2019-03-12T00:43:58.522Z,44.8
2019-03-12T00:44:48.937Z,44.8
2019-03-12T00:45:38.878Z,44.8
2019-03-12T00:46:31.685Z,44.8
2019-03-12T00:47:18.731Z,44.8
2019-03-12T00:48:08.775Z,44.8
2019-03-12T00:48:59.418Z,44.8
2019-03-12T00:49:48.895Z,44.8
2019-03-12T00:50:39.232Z,44.8
2019-03-12T00:51:29.025Z,44.8
2019-03-12T00:52:19.359Z,44.7
2019-03-12T00:53:09.163Z,44.7
2019-03-12T00:53:58.945Z,44.7
2019-03-12T00:54:49.264Z,44.7
2019-03-12T00:55:39.352Z,44.7
2019-03-12T00:56:29.120Z,44.7
2019-03-12T00:57:19.177Z,44.7
2019-03-12T00:58:09.827Z,44.7
2019-03-12T00:58:59.007Z,44.7
2019-03-12T00:59:49.663Z,44.7
2019-03-12T01:00:39.702Z,44.7
2019-03-12T01:01:30.062Z,44.7
2019-03-12T01:02:20.364Z,44.7
2019-03-12T01:03:09.974Z,44.7
2019-03-12T01:04:00.501Z,44.7
2019-03-12T01:04:50.004Z,44.6
2019-03-12T01:05:40.069Z,44.6
2019-03-12T01:06:30.689Z,44.6
2019-03-12T01:07:20.517Z,44.6
2019-03-12T01:08:09.956Z,44.6
2019-03-12T01:09:00.934Z,44.6
2019-03-12T01:09:50.083Z,44.6
2019-03-12T01:10:41.046Z,44.6
2019-03-12T01:11:31.037Z,44.6
2019-03-12T01:12:20.817Z,44.6
2019-03-12T01:13:10.146Z,44.6
2019-03-12T01:14:01.232Z,44.6
2019-03-12T01:14:50.444Z,44.6
2019-03-12T01:15:41.348Z,44.6
2019-03-12T01:16:30.282Z,44.6
2019-03-12T01:17:21.171Z,44.6
2019-03-12T01:18:14.238Z,44.6
2019-03-12T01:19:01.387Z,44.6
2019-03-12T01:19:51.630Z,44.6
2019-03-12T01:20:41.135Z,44.6
2019-03-12T01:21:31.513Z,44.6
2019-03-12T01:22:21.630Z,44.6
2019-03-12T01:23:11.319Z,44.6
2019-03-12T01:24:01.685Z,44.6
2019-03-12T01:24:51.751Z,44.6
2019-03-12T01:25:41.345Z,44.6
2019-03-12T01:26:31.583Z,44.6
2019-03-12T01:27:21.912Z,44.6
2019-03-12T01:28:12.255Z,44.5
2019-03-12T01:29:02.019Z,44.6
2019-03-12T01:29:52.117Z,44.6
2019-03-12T01:30:42.181Z,44.5
2019-03-12T01:31:32.202Z,44.5
2019-03-12T01:32:22.580Z,44.5
2019-03-12T01:33:12.042Z,44.5
2019-03-12T01:34:02.134Z,44.5
2019-03-12T01:34:51.620Z,44.5
2019-03-12T01:35:42.262Z,44.5
2019-03-12T01:36:32.837Z,44.5
2019-03-12T01:37:22.645Z,44.5
2019-03-12T01:38:12.707Z,44.5
2019-03-12T01:39:02.199Z,44.5
2019-03-12T01:39:52.802Z,44.4
2019-03-12T01:40:43.149Z,44.5
2019-03-12T01:41:32.109Z,44.4
2019-03-12T01:42:23.063Z,44.4
2019-03-12T01:43:12.805Z,44.4
2019-03-12T01:44:03.117Z,44.4
2019-03-12T01:44:52.909Z,44.4
2019-03-12T01:45:43.235Z,44.4
2019-03-12T01:46:33.017Z,44.4
2019-03-12T01:47:23.474Z,44.4
2019-03-12T01:48:13.429Z,44.4
2019-03-12T01:49:02.927Z,44.4
2019-03-12T01:49:53.802Z,44.4
2019-03-12T01:50:43.896Z,44.4
2019-03-12T01:51:35.553Z,44.4
2019-03-12T01:52:24.000Z,44.4
2019-03-12T01:53:13.792Z,44.4
2019-03-12T01:54:03.604Z,44.4
2019-03-12T01:54:53.640Z,44.4
2019-03-12T01:55:43.981Z,44.4
2019-03-12T01:56:33.797Z,44.4
2019-03-12T01:57:24.166Z,44.4
2019-03-12T01:58:17.622Z,44.4
2019-03-12T01:59:03.674Z,44.4
2019-03-12T01:59:54.013Z,44.4
2019-03-12T02:00:44.362Z,44.4
2019-03-12T02:01:34.121Z,44.4
2019-03-12T02:02:24.163Z,44.4
2019-03-12T02:03:14.639Z,44.4
2019-03-12T02:04:04.378Z,44.4
2019-03-12T02:04:53.528Z,44.4
2019-03-12T02:05:44.688Z,44.4
2019-03-12T02:06:34.486Z,44.4
2019-03-12T02:07:25.092Z,44.4
2019-03-12T02:08:14.323Z,44.3
2019-03-12T02:09:05.282Z,44.3
2019-03-12T02:09:55.010Z,44.3
2019-03-12T02:10:44.863Z,44.3
2019-03-12T02:11:35.403Z,44.3
2019-03-12T02:12:24.345Z,44.3
2019-03-12T02:13:15.225Z,44.3
2019-03-12T02:14:05.303Z,44.3
2019-03-12T02:14:55.113Z,44.3
2019-03-12T02:15:45.150Z,44.3
2019-03-12T02:16:38.213Z,44.3
2019-03-12T02:17:25.040Z,44.3
2019-03-12T02:18:15.317Z,44.3
2019-03-12T02:19:05.685Z,44.3
2019-03-12T02:19:55.545Z,44.3
2019-03-12T02:20:46.064Z,44.3
2019-03-12T02:21:35.552Z,44.3
2019-03-12T02:22:25.917Z,44.3
2019-03-12T02:23:15.415Z,44.3
2019-03-12T02:24:05.514Z,44.3
2019-03-12T02:24:57.692Z,44.3
2019-03-12T02:25:46.137Z,44.3
2019-03-12T02:26:35.943Z,44.3
2019-03-12T02:27:26.269Z,44.3
2019-03-12T02:28:16.049Z,44.3
2019-03-12T02:29:06.656Z,44.2
2019-03-12T02:29:56.437Z,44.3
2019-03-12T02:30:46.687Z,44.3
2019-03-12T02:31:36.341Z,44.2
2019-03-12T02:32:26.080Z,44.2
2019-03-12T02:33:15.839Z,44.2
2019-03-12T02:34:07.099Z,44.2
2019-03-12T02:34:56.905Z,44.2
2019-03-12T02:35:46.793Z,44.2
2019-03-12T02:36:36.449Z,44.2
2019-03-12T02:37:27.123Z,44.2
2019-03-12T02:38:17.385Z,44.2
2019-03-12T02:39:07.153Z,44.2
2019-03-12T02:39:57.218Z,44.2
2019-03-12T02:40:47.299Z,44.2
2019-03-12T02:41:37.376Z,44.2
2019-03-12T02:42:27.388Z,44.2
2019-03-12T02:43:17.836Z,44.1
2019-03-12T02:44:07.303Z,44.1
2019-03-12T02:44:57.872Z,44.1
2019-03-12T02:45:47.719Z,44.1
2019-03-12T02:46:37.980Z,44.1
2019-03-12T02:47:27.606Z,44.1
2019-03-12T02:48:17.560Z,44.1
2019-03-12T02:49:13.402Z,44.1
2019-03-12T02:49:57.935Z,44.1
2019-03-12T02:50:47.181Z,44.1
2019-03-12T02:51:38.343Z,44.1
2019-03-12T02:52:28.493Z,44.1
2019-03-12T02:53:17.954Z,44.1
2019-03-12T02:54:07.846Z,44.1
2019-03-12T02:54:58.040Z,44.1
2019-03-12T02:55:48.354Z,44.1
2019-03-12T02:56:37.894Z,44.1
2019-03-12T02:57:28.487Z,44.1
2019-03-12T02:58:18.280Z,44.1
2019-03-12T02:59:08.686Z,44.1
2019-03-12T02:59:58.211Z,44.1
2019-03-12T03:00:48.195Z,44.1
2019-03-12T03:01:38.958Z,44.1
2019-03-12T03:02:28.510Z,44.1
2019-03-12T03:03:18.933Z,44.1
2019-03-12T03:04:09.258Z,44.1
2019-03-12T03:07:38.810Z,44.1
2019-03-12T03:08:30.068Z,44.1
2019-03-12T03:09:19.865Z,44.1
2019-03-12T03:10:10.075Z,44
2019-03-12T03:10:59.951Z,44
2019-03-12T03:11:53.730Z,44
2019-03-12T03:12:39.967Z,44
2019-03-12T03:13:29.641Z,44
2019-03-12T03:14:20.094Z,44
2019-03-12T03:15:09.880Z,44
2019-03-12T03:16:00.557Z,44
2019-03-12T03:16:50.031Z,44
2019-03-12T03:17:40.372Z,44
2019-03-12T03:18:30.457Z,44
2019-03-12T03:19:20.192Z,44
2019-03-12T03:20:10.294Z,43.9
2019-03-12T03:21:00.194Z,44
2019-03-12T03:21:49.819Z,44
2019-03-12T03:22:41.057Z,43.9
2019-03-12T03:23:30.551Z,44
2019-03-12T03:24:20.889Z,44
2019-03-12T03:25:10.669Z,43.9
2019-03-12T03:26:00.881Z,43.9
2019-03-12T03:26:50.629Z,43.9
2019-03-12T03:27:40.544Z,43.9
2019-03-12T03:28:31.415Z,43.9
2019-03-12T03:29:20.929Z,43.9
2019-03-12T03:30:11.053Z,43.9
2019-03-12T03:31:01.883Z,43.9
2019-03-12T03:31:51.222Z,43.9
2019-03-12T03:32:41.582Z,43.9
2019-03-12T03:33:31.902Z,43.9
2019-03-12T03:34:31.143Z,43.9
2019-03-12T03:35:11.587Z,43.9
2019-03-12T03:36:02.089Z,43.9
2019-03-12T03:36:51.767Z,43.9
2019-03-12T03:37:41.793Z,43.9
2019-03-12T03:38:31.884Z,43.9
2019-03-12T03:39:21.929Z,43.9
2019-03-12T03:40:12.033Z,43.9
2019-03-12T03:41:02.238Z,43.9
2019-03-12T03:41:52.167Z,43.9
2019-03-12T03:42:42.000Z,43.9
2019-03-12T03:43:32.544Z,43.9
2019-03-12T03:44:22.111Z,43.9
2019-03-12T03:45:12.468Z,43.9
2019-03-12T03:46:02.722Z,43.9
2019-03-12T03:46:52.201Z,43.8
2019-03-12T03:47:42.598Z,43.9
2019-03-12T03:48:32.527Z,43.9
2019-03-12T03:49:22.981Z,43.8
2019-03-12T03:50:12.785Z,43.8
2019-03-12T03:51:02.560Z,43.8
2019-03-12T03:51:52.860Z,43.8
2019-03-12T03:52:43.045Z,43.8
2019-03-12T03:53:32.489Z,43.8
2019-03-12T03:54:22.940Z,43.8
2019-03-12T03:55:12.960Z,43.8
2019-03-12T03:56:03.473Z,43.8
2019-03-12T03:56:53.231Z,43.8
2019-03-12T03:57:43.394Z,43.8
2019-03-12T03:58:32.813Z,43.8
2019-03-12T03:59:23.499Z,43.8
2019-03-12T04:00:13.710Z,43.8
2019-03-12T04:01:03.247Z,43.8
2019-03-12T04:01:53.297Z,43.8
2019-03-12T04:02:43.966Z,43.8
2019-03-12T04:03:34.073Z,43.8
2019-03-12T04:04:24.182Z,43.8
2019-03-12T04:05:14.109Z,43.8
2019-03-12T04:06:03.430Z,43.8
2019-03-12T04:06:53.717Z,43.8
2019-03-12T04:07:43.428Z,43.8
2019-03-12T04:08:33.827Z,43.8
2019-03-12T04:09:23.596Z,43.8
2019-03-12T04:10:14.378Z,43.8
2019-03-12T04:11:04.284Z,43.8
2019-03-12T04:11:54.005Z,43.8
2019-03-12T04:12:44.241Z,43.7
2019-03-12T04:13:34.721Z,43.7
2019-03-12T04:14:24.179Z,43.7
2019-03-12T04:15:14.370Z,43.8
2019-03-12T04:16:05.148Z,43.7
2019-03-12T04:16:54.684Z,43.7
2019-03-12T04:17:45.141Z,43.7
2019-03-12T04:18:34.877Z,43.7
2019-03-12T04:19:24.638Z,43.7
2019-03-12T04:20:14.538Z,43.7
2019-03-12T04:21:05.346Z,43.7
2019-03-12T04:21:55.325Z,43.7
2019-03-12T04:22:45.185Z,43.7
2019-03-12T04:23:34.735Z,43.7
2019-03-12T04:24:25.205Z,43.6
2019-03-12T04:25:15.162Z,43.6
2019-03-12T04:26:05.360Z,43.6
2019-03-12T04:26:55.410Z,43.6
2019-03-12T04:27:45.873Z,43.6
2019-03-12T04:28:35.802Z,43.6
2019-03-12T04:29:25.860Z,43.6
2019-03-12T04:30:15.081Z,43.6
2019-03-12T04:31:05.991Z,43.6
2019-03-12T04:31:56.077Z,43.6
2019-03-12T04:32:45.663Z,43.6
2019-03-12T04:33:35.672Z,43.6
2019-03-12T04:34:25.727Z,43.6
2019-03-12T04:35:16.114Z,43.6
2019-03-12T04:36:05.497Z,43.6
2019-03-12T04:36:56.265Z,43.6
2019-03-12T04:37:46.470Z,43.6
2019-03-12T04:38:35.949Z,43.6
2019-03-12T04:39:25.673Z,43.6
2019-03-12T04:40:15.847Z,43.6
2019-03-12T04:41:06.092Z,43.6
2019-03-12T04:41:56.147Z,43.6
2019-03-12T04:42:46.042Z,43.6
2019-03-12T04:43:36.589Z,43.6
2019-03-12T04:44:26.711Z,43.6
2019-03-12T04:45:16.775Z,43.6
2019-03-12T04:46:06.741Z,43.6
2019-03-12T04:46:56.627Z,43.6
2019-03-12T04:47:46.371Z,43.6
2019-03-12T04:48:36.889Z,43.6
2019-03-12T04:49:26.729Z,43.6
2019-03-12T04:50:16.822Z,43.6
2019-03-12T04:51:06.779Z,43.6
2019-03-12T04:51:57.563Z,43.5
2019-03-12T04:52:46.977Z,43.5
2019-03-12T04:53:40.801Z,43.5
2019-03-12T04:54:27.605Z,43.5
2019-03-12T04:55:16.871Z,43.5
2019-03-12T04:56:07.454Z,43.5
2019-03-12T04:56:57.792Z,43.5
2019-03-12T04:57:47.686Z,43.5
2019-03-12T04:58:37.628Z,43.4
2019-03-12T04:59:27.441Z,43.5
2019-03-12T05:00:17.497Z,43.5
2019-03-12T05:01:07.818Z,43.5
2019-03-12T05:01:57.690Z,43.5
2019-03-12T05:02:47.925Z,43.4
2019-03-12T05:03:37.421Z,43.4
2019-03-12T05:04:28.341Z,43.4
2019-03-12T05:05:17.853Z,43.4
2019-03-12T05:06:08.174Z,43.4
2019-03-12T05:06:57.670Z,43.4
2019-03-12T05:07:48.323Z,43.4
2019-03-12T05:08:38.346Z,43.4
2019-03-12T05:09:28.149Z,43.4
2019-03-12T05:10:18.776Z,43.4
2019-03-12T05:11:08.348Z,43.4
2019-03-12T05:11:58.348Z,43.4
2019-03-12T05:12:48.918Z,43.4
2019-03-12T05:13:38.232Z,43.4
2019-03-12T05:14:28.496Z,43.4
2019-03-12T05:15:18.614Z,43.4
2019-03-12T05:16:08.614Z,43.4
2019-03-12T05:16:58.484Z,43.4
2019-03-12T05:17:48.605Z,43.4
2019-03-12T05:18:38.794Z,43.4
2019-03-12T05:19:28.865Z,43.4
2019-03-12T05:20:19.210Z,43.4
2019-03-12T05:21:08.742Z,43.4
2019-03-12T05:21:59.040Z,43.4
2019-03-12T05:22:49.555Z,43.4
2019-03-12T05:23:39.167Z,43.4
2019-03-12T05:24:29.212Z,43.4
2019-03-12T05:25:19.289Z,43.4
2019-03-12T05:26:09.045Z,43.4
2019-03-12T05:26:59.962Z,43.4
2019-03-12T05:27:49.034Z,43.3
2019-03-12T05:28:39.806Z,43.3
2019-03-12T05:29:29.574Z,43.3
2019-03-12T05:30:20.238Z,43.3
2019-03-12T05:31:10.281Z,43.4
2019-03-12T05:32:00.113Z,43.3
2019-03-12T05:32:50.291Z,43.3
2019-03-12T05:33:40.151Z,43.3
2019-03-12T05:34:29.997Z,43.3
2019-03-12T05:35:20.331Z,43.3
2019-03-12T05:36:10.373Z,43.3
2019-03-12T05:37:00.144Z,43.3
2019-03-12T05:37:50.514Z,43.3
2019-03-12T05:38:40.877Z,43.3
2019-03-12T05:39:30.906Z,43.3
2019-03-12T05:40:20.369Z,43.3
2019-03-12T05:41:13.722Z,43.3
2019-03-12T05:42:00.804Z,43.3
2019-03-12T05:42:50.815Z,43.3
2019-03-12T05:43:40.856Z,43.3
2019-03-12T05:44:30.659Z,43.3
2019-03-12T05:45:21.029Z,43.3
2019-03-12T05:46:11.326Z,43.3
2019-03-12T05:47:01.403Z,43.3
2019-03-12T05:47:51.446Z,43.3
2019-03-12T05:48:41.266Z,43.3
2019-03-12T05:49:30.763Z,43.3
2019-03-12T05:50:20.801Z,43.3
2019-03-12T05:51:11.133Z,43.3
2019-03-12T05:52:00.745Z,43.2
2019-03-12T05:52:53.054Z,43.2
2019-03-12T05:53:41.883Z,43.3
2019-03-12T05:54:31.430Z,43.3
2019-03-12T05:55:22.035Z,43.2
2019-03-12T05:56:11.483Z,43.2
2019-03-12T05:57:01.579Z,43.2
2019-03-12T05:57:52.338Z,43.2
2019-03-12T05:58:41.397Z,43.2
2019-03-12T05:59:31.820Z,43.2
2019-03-12T06:00:22.112Z,43.2
2019-03-12T06:01:12.142Z,43.2
2019-03-12T06:02:01.666Z,43.2
2019-03-12T06:02:52.001Z,43.2
2019-03-12T06:03:42.340Z,43.2
2019-03-12T06:05:39.037Z,43.1
2019-03-12T06:06:29.024Z,43.2
2019-03-12T06:07:19.407Z,43.1
2019-03-12T06:08:09.717Z,43.1
2019-03-12T06:08:59.723Z,43.1
2019-03-12T06:09:49.481Z,43.1
2019-03-12T06:10:39.547Z,43.1
2019-03-12T06:11:29.605Z,43.1
2019-03-12T06:12:19.947Z,43.1
2019-03-12T06:13:10.059Z,43.1
2019-03-12T06:14:00.079Z,43.1
2019-03-12T06:14:50.121Z,43.1
2019-03-12T06:15:40.472Z,43.1
2019-03-12T06:16:30.249Z,43.1
2019-03-12T06:17:20.649Z,43.1
2019-03-12T06:18:10.449Z,43.1
2019-03-12T06:19:00.226Z,43.1
2019-03-12T06:19:50.207Z,43.1
2019-03-12T06:20:40.274Z,43.1
2019-03-12T06:21:30.885Z,43.1
2019-03-12T06:22:20.689Z,43.1
2019-03-12T06:23:09.621Z,43.1
2019-03-12T06:24:01.080Z,43.1
2019-03-12T06:24:51.137Z,43.1
2019-03-12T06:25:40.396Z,43.1
2019-03-12T06:26:30.396Z,43.1
2019-03-12T06:27:22.384Z,43.1
2019-03-12T06:28:10.791Z,43.1
2019-03-12T06:29:00.863Z,43.1
2019-03-12T06:29:50.946Z,43.1
2019-03-12T06:30:40.978Z,43.1
2019-03-12T06:31:31.028Z,43
2019-03-12T06:32:21.368Z,43
2019-03-12T06:33:11.455Z,43
2019-03-12T06:34:01.236Z,43
2019-03-12T06:34:51.838Z,43
2019-03-12T06:35:40.812Z,43
2019-03-12T06:36:31.681Z,43
2019-03-12T06:37:21.189Z,43
2019-03-12T06:38:11.565Z,42.9
2019-03-12T06:39:01.582Z,42.9
2019-03-12T06:39:51.943Z,43
2019-03-12T06:40:42.263Z,42.9
2019-03-12T06:41:31.486Z,43
2019-03-12T06:42:22.095Z,42.9
2019-03-12T06:43:12.170Z,42.9
2019-03-12T06:44:02.294Z,42.9
2019-03-12T06:44:52.330Z,42.9
2019-03-12T06:45:42.630Z,42.9
2019-03-12T06:46:32.127Z,42.9
2019-03-12T06:47:21.899Z,42.9
2019-03-12T06:48:12.267Z,42.9
2019-03-12T06:49:02.574Z,42.9
2019-03-12T06:49:52.655Z,42.9
2019-03-12T06:50:42.986Z,42.9
2019-03-12T06:51:31.692Z,42.9
2019-03-12T06:52:23.101Z,42.9
2019-03-12T06:53:12.610Z,42.9
2019-03-12T06:54:03.225Z,42.9
2019-03-12T06:54:53.013Z,42.9
2019-03-12T06:55:45.517Z,42.9
2019-03-12T06:56:32.978Z,42.9
2019-03-12T06:57:22.627Z,42.9
2019-03-12T06:58:13.500Z,42.9
2019-03-12T06:59:03.022Z,42.9
2019-03-12T06:59:53.626Z,42.9
2019-03-12T07:00:43.149Z,42.9
2019-03-12T07:01:33.471Z,42.9
2019-03-12T07:02:23.805Z,42.9
2019-03-12T07:03:13.589Z,42.9
2019-03-12T07:05:38.851Z,42.9
2019-03-12T07:06:28.954Z,42.9
2019-03-12T07:07:21.981Z,42.8
2019-03-12T07:08:11.096Z,42.8
2019-03-12T07:08:59.960Z,42.9
2019-03-12T07:09:50.184Z,42.8
2019-03-12T07:10:39.474Z,42.8
2019-03-12T07:11:29.566Z,42.8
2019-03-12T07:12:20.163Z,42.8
2019-03-12T07:13:10.006Z,42.8
2019-03-12T07:14:00.285Z,42.8
2019-03-12T07:14:49.791Z,42.8
2019-03-12T07:15:39.908Z,42.8
2019-03-12T07:16:29.906Z,42.8
2019-03-12T07:17:19.998Z,42.8
2019-03-12T07:18:09.748Z,42.8
2019-03-12T07:19:00.348Z,42.8
2019-03-12T07:19:50.600Z,42.8
2019-03-12T07:20:40.498Z,42.8
2019-03-12T07:21:30.538Z,42.8
2019-03-12T07:22:20.310Z,42.8
2019-03-12T07:23:10.668Z,42.8
2019-03-12T07:24:00.710Z,42.8
2019-03-12T07:24:50.513Z,42.8
2019-03-12T07:25:40.820Z,42.8
2019-03-12T07:26:30.875Z,42.8
2019-03-12T07:27:20.940Z,42.8
2019-03-12T07:28:10.477Z,42.7
2019-03-12T07:29:01.425Z,42.8
2019-03-12T07:29:51.126Z,42.8
2019-03-12T07:30:40.965Z,42.8
2019-03-12T07:31:32.219Z,42.7
2019-03-12T07:32:21.297Z,42.7
2019-03-12T07:33:11.213Z,42.7
2019-03-12T07:34:01.162Z,42.7
2019-03-12T07:34:51.484Z,42.7
2019-03-12T07:35:41.558Z,42.7
2019-03-12T07:36:31.615Z,42.7
2019-03-12T07:37:21.682Z,42.7
2019-03-12T07:38:12.003Z,42.7
2019-03-12T07:39:02.037Z,42.7
2019-03-12T07:39:51.307Z,42.7
2019-03-12T07:40:41.382Z,42.7
2019-03-12T07:41:37.435Z,42.7
2019-03-12T07:42:21.478Z,42.7
2019-03-12T07:43:11.627Z,42.6
2019-03-12T07:44:02.177Z,42.7
2019-03-12T07:44:52.220Z,42.6
2019-03-12T07:45:45.707Z,42.6
2019-03-12T07:46:32.439Z,42.6
2019-03-12T07:47:36.242Z,42.6
2019-03-12T07:48:26.873Z,42.6
2019-03-12T07:49:02.560Z,42.6
2019-03-12T07:49:52.882Z,42.6
2019-03-12T07:50:42.680Z,42.6
2019-03-12T07:51:31.909Z,42.6
2019-03-12T07:52:22.486Z,42.6
2019-03-12T07:53:12.257Z,42.6
2019-03-12T07:54:04.729Z,42.6
2019-03-12T07:54:52.462Z,42.6
2019-03-12T07:55:42.790Z,42.6
2019-03-12T07:56:33.079Z,42.6
2019-03-12T07:57:23.157Z,42.6
2019-03-12T07:58:13.214Z,42.6
2019-03-12T07:59:03.213Z,42.6
2019-03-12T07:59:53.283Z,42.6
2019-03-12T08:00:43.351Z,42.6
2019-03-12T08:01:33.697Z,42.6
2019-03-12T08:02:22.631Z,42.6
2019-03-12T08:03:13.780Z,42.6
2019-03-12T08:04:03.924Z,42.6
2019-03-12T08:04:53.383Z,42.6
2019-03-12T08:05:43.716Z,42.6
2019-03-12T08:06:33.763Z,42.6
2019-03-12T08:07:23.576Z,42.6
2019-03-12T08:08:13.048Z,42.6
2019-03-12T08:09:04.253Z,42.6
2019-03-12T08:09:53.736Z,42.5
2019-03-12T08:10:44.383Z,42.6
2019-03-12T08:11:34.115Z,42.5
2019-03-12T08:12:24.498Z,42.5
2019-03-12T08:13:14.578Z,42.5
2019-03-12T08:14:03.472Z,42.5
2019-03-12T08:14:54.403Z,42.5
2019-03-12T08:15:44.256Z,42.5
2019-03-12T08:16:34.208Z,42.5
2019-03-12T08:17:24.280Z,42.5
2019-03-12T08:18:14.082Z,42.5
2019-03-12T08:19:04.675Z,42.5
2019-03-12T08:19:54.782Z,42.5
2019-03-12T08:20:44.792Z,42.4
2019-03-12T08:21:34.873Z,42.5
2019-03-12T08:22:24.912Z,42.4
2019-03-12T08:23:14.986Z,42.5
2019-03-12T08:24:05.055Z,42.4
2019-03-12T08:24:55.104Z,42.4
2019-03-12T08:25:48.592Z,42.4
2019-03-12T08:26:34.945Z,42.4
2019-03-12T08:27:28.122Z,42.4
2019-03-12T08:28:15.036Z,42.4
2019-03-12T08:29:05.129Z,42.4
2019-03-12T08:29:55.470Z,42.4
2019-03-12T08:30:45.069Z,42.4
2019-03-12T08:31:35.307Z,42.4
2019-03-12T08:32:28.757Z,42.4
2019-03-12T08:33:14.361Z,42.4
2019-03-12T08:34:05.751Z,42.4
2019-03-12T08:34:56.165Z,42.4
2019-03-12T08:35:45.945Z,42.4
2019-03-12T08:36:35.465Z,42.4
2019-03-12T08:37:26.058Z,42.4
2019-03-12T08:38:16.127Z,42.4
2019-03-12T08:39:06.380Z,42.4
2019-03-12T08:39:56.265Z,42.4
2019-03-12T08:41:01.163Z,42.4
2019-03-12T08:41:36.024Z,42.4
2019-03-12T08:42:26.348Z,42.4
2019-03-12T08:43:16.589Z,42.4
2019-03-12T08:44:06.558Z,42.4
2019-03-12T08:44:59.968Z,42.4
2019-03-12T08:45:53.264Z,42.4
2019-03-12T08:46:37.031Z,42.4
2019-03-12T08:47:26.512Z,42.4
2019-03-12T08:48:17.742Z,42.4
2019-03-12T08:49:06.999Z,42.3
2019-03-12T08:49:56.609Z,42.3
2019-03-12T08:50:46.749Z,42.3
2019-03-12T08:51:37.403Z,42.4
2019-03-12T08:52:26.949Z,42.3
2019-03-12T08:53:16.918Z,42.3
2019-03-12T08:54:07.256Z,42.3
2019-03-12T08:54:59.554Z,42.3
2019-03-12T08:55:47.674Z,42.3
2019-03-12T08:56:37.935Z,42.3
2019-03-12T08:57:27.761Z,42.3
2019-03-12T08:58:17.832Z,42.3
2019-03-12T08:59:07.596Z,42.3
2019-03-12T08:59:57.637Z,42.3
2019-03-12T09:00:47.460Z,42.3
2019-03-12T09:01:38.049Z,42.3
2019-03-12T09:02:28.086Z,42.3
2019-03-12T09:03:17.304Z,42.3
2019-03-12T09:04:08.233Z,42.3
2019-03-12T09:04:58.250Z,42.3
2019-03-12T09:05:48.028Z,42.3
2019-03-12T09:06:37.802Z,42.3
2019-03-12T09:07:27.327Z,42.3
2019-03-12T09:08:18.219Z,42.3
2019-03-12T09:09:08.270Z,42.3
2019-03-12T09:09:58.318Z,42.3
2019-03-12T09:10:48.385Z,42.3
2019-03-12T09:11:38.261Z,42.3
2019-03-12T09:12:28.507Z,42.3
2019-03-12T09:13:18.859Z,42.3
2019-03-12T09:14:07.814Z,42.3
2019-03-12T09:14:58.957Z,42.2
2019-03-12T09:15:49.098Z,42.2
2019-03-12T09:16:38.504Z,42.2
2019-03-12T09:17:28.879Z,42.3
2019-03-12T09:18:18.656Z,42.2
2019-03-12T09:19:08.981Z,42.2
2019-03-12T09:19:59.119Z,42.2
2019-03-12T09:20:48.821Z,42.2
2019-03-12T09:21:39.151Z,42.2
2019-03-12T09:22:29.494Z,42.2
2019-03-12T09:23:19.605Z,42.2
2019-03-12T09:24:09.630Z,42.2
2019-03-12T09:24:59.181Z,42.2
2019-03-12T09:25:49.751Z,42.2
2019-03-12T09:26:38.427Z,42.2
2019-03-12T09:27:29.519Z,42.2
2019-03-12T09:28:19.707Z,42.2
2019-03-12T09:29:09.923Z,42.2
2019-03-12T09:29:59.776Z,42.1
2019-03-12T09:30:49.281Z,42.1
2019-03-12T09:31:39.949Z,42.1
2019-03-12T09:32:29.661Z,42.1
2019-03-12T09:33:20.270Z,42.1
2019-03-12T09:34:10.323Z,42.1
2019-03-12T09:35:00.183Z,42.1
2019-03-12T09:35:49.598Z,42.1
2019-03-12T09:36:39.373Z,42.1
2019-03-12T09:37:30.055Z,42.1
2019-03-12T09:38:20.453Z,42.1
2019-03-12T09:39:10.411Z,42.1
2019-03-12T09:40:00.502Z,42.1
2019-03-12T09:40:49.991Z,42.1
2019-03-12T09:41:40.137Z,42.1
2019-03-12T09:42:30.690Z,42.1
2019-03-12T09:43:20.156Z,42.1
2019-03-12T09:44:11.069Z,42.1
2019-03-12T09:45:01.125Z,42.1
2019-03-12T09:45:51.195Z,42.1
2019-03-12T09:46:41.260Z,42.1
2019-03-12T09:47:30.691Z,42.1
2019-03-12T09:48:21.006Z,42.1
2019-03-12T09:49:10.858Z,42.1
2019-03-12T09:50:01.096Z,42
2019-03-12T09:50:51.280Z,42
2019-03-12T09:51:41.334Z,42
2019-03-12T09:52:31.383Z,42
2019-03-12T09:53:21.479Z,42
2019-03-12T09:54:11.005Z,42
2019-03-12T09:55:04.747Z,42
2019-03-12T09:55:52.082Z,42
2019-03-12T09:56:41.398Z,42
2019-03-12T09:57:31.187Z,42
2019-03-12T09:58:21.709Z,42
2019-03-12T09:59:11.566Z,42
2019-03-12T10:00:16.776Z,42
2019-03-12T10:00:51.405Z,42
2019-03-12T10:01:42.277Z,42
2019-03-12T10:02:32.149Z,41.9
2019-03-12T10:03:22.240Z,41.9
2019-03-12T10:04:12.392Z,42
2019-03-12T10:06:39.264Z,41.9
2019-03-12T10:07:29.061Z,41.9
2019-03-12T10:08:19.739Z,41.9
2019-03-12T10:09:09.264Z,41.9
2019-03-12T10:10:00.004Z,41.9
2019-03-12T10:10:49.063Z,41.9
2019-03-12T10:11:39.638Z,41.9
2019-03-12T10:12:30.010Z,41.9
2019-03-12T10:13:19.481Z,41.9
2019-03-12T10:14:09.003Z,41.9
2019-03-12T10:14:59.691Z,41.9
2019-03-12T10:15:49.664Z,41.9
2019-03-12T10:16:39.723Z,41.9
2019-03-12T10:17:30.328Z,41.9
2019-03-12T10:18:19.819Z,41.9
2019-03-12T10:19:10.528Z,41.9
2019-03-12T10:19:59.675Z,41.9
2019-03-12T10:20:50.663Z,41.9
2019-03-12T10:21:39.790Z,41.9
2019-03-12T10:22:30.116Z,41.9
2019-03-12T10:23:20.463Z,41.9
2019-03-12T10:24:10.511Z,41.9
2019-03-12T10:25:00.421Z,41.9
2019-03-12T10:25:50.360Z,41.9
2019-03-12T10:26:40.963Z,41.9
2019-03-12T10:27:30.065Z,41.9
2019-03-12T10:28:21.078Z,41.9
2019-03-12T10:29:11.167Z,41.9
2019-03-12T10:30:00.895Z,41.9
2019-03-12T10:30:50.800Z,41.8
2019-03-12T10:31:40.525Z,41.9
2019-03-12T10:32:31.415Z,41.9
2019-03-12T10:33:21.205Z,41.8
2019-03-12T10:34:11.237Z,41.8
2019-03-12T10:35:01.451Z,41.8
2019-03-12T10:35:52.236Z,41.8
2019-03-12T10:36:41.435Z,41.8
2019-03-12T10:37:31.197Z,41.8
2019-03-12T10:38:20.694Z,41.8
2019-03-12T10:39:11.592Z,41.8
2019-03-12T10:40:01.688Z,41.8
2019-03-12T10:40:52.090Z,41.8
2019-03-12T10:41:41.343Z,41.8
2019-03-12T10:42:31.099Z,41.8
2019-03-12T10:43:22.195Z,41.8
2019-03-12T10:44:11.425Z,41.8
2019-03-12T10:45:02.362Z,41.8
2019-03-12T10:45:52.076Z,41.8
2019-03-12T10:46:42.140Z,41.8
2019-03-12T10:47:32.173Z,41.8
2019-03-12T10:48:22.592Z,41.8
2019-03-12T10:49:12.147Z,41.8
2019-03-12T10:50:02.464Z,41.8
2019-03-12T10:50:52.722Z,41.8
2019-03-12T10:51:42.296Z,41.8
2019-03-12T10:52:32.273Z,41.8
2019-03-12T10:53:22.662Z,41.8
2019-03-12T10:54:12.139Z,41.8
2019-03-12T10:55:18.344Z,41.8
2019-03-12T10:55:52.517Z,41.7
2019-03-12T10:56:42.900Z,41.8
2019-03-12T10:57:32.636Z,41.7
2019-03-12T10:58:23.362Z,41.7
2019-03-12T10:59:12.836Z,41.7
2019-03-12T11:00:02.783Z,41.7
2019-03-12T11:00:53.309Z,41.7
2019-03-12T11:01:43.213Z,41.7
2019-03-12T11:02:32.978Z,41.7
2019-03-12T11:03:23.356Z,41.7
2019-03-12T11:04:13.706Z,41.7
2019-03-12T11:05:03.333Z,41.7
2019-03-12T11:05:52.953Z,41.7
2019-03-12T11:06:42.821Z,41.7
2019-03-12T11:07:33.918Z,41.7
2019-03-12T11:08:22.913Z,41.7
2019-03-12T11:09:13.733Z,41.7
2019-03-12T11:10:03.828Z,41.6
2019-03-12T11:10:52.293Z,41.7
2019-03-12T11:11:43.831Z,41.6
2019-03-12T11:12:33.788Z,41.6
2019-03-12T11:13:23.798Z,41.6
2019-03-12T11:14:13.370Z,41.6
2019-03-12T11:15:04.700Z,41.6
2019-03-12T11:15:54.240Z,41.6